Portada
METAR-TAF:

METAR-TAF

Aeropuertos :

Aeropuerto de Granada

Granada, España

latitud: 37-11N, longitud: 003-47W, altitud: 567 m

Observación

El informe se hizo hace 34 minutos, a las 12:00 UTC
Viento 1 kt con dirección variable
Temperatura 19°C
Humedad 60%
Presión 1016 hPa
Visibilidad 10 km o más
Escasas nubes a una altura de 3000 ft

METAR: LEGR 151200Z VRB01KT 9999 FEW030 19/11 Q1016

Hora: 13:34 (12:34 UTC)

Pronóstico

El informe se hizo hace 4 horas y 34 minutos, a las 08:00 UTC
Pronóstico válido del 15 a las 09 UTC al 16 a las 09 UTC
Viento 2 kt con dirección variable
Visibilidad 10 km o más
Escasas nubes a una altura de 5000 ft
Probabilidad 40% :
Temporalmente
del 15 a las 12 UTC al 15 a las 18 UTC
Escasas nubes a una altura de 3000 ft, Cumulonimbus.
chaparrones de lluvia

TAF: LEGR 150800Z 1509/1609 VRB02KT 9999 FEW050 TX18/1515Z TN07/1606Z PROB40 TEMPO 1512/1518 SHRA FEW030CB

Observaciones y pronósticos meteorológicos de más de 4000 aeropuertos (mensajes METAR y TAF).

Los puntos amarillos y rojos representan las estaciones disponibles.

Ponga el ratón en el punto deseado para ver el nombre de la estación.

Haga clic para ver las observaciones y los pronósticos meteorológicos.

Para cambiar el mapa : haga clic en los botones verdes con una cruz de color negro para hacer un zoom, en el botón verde con un guión para alejar o en las flechas verdes para mapas adyacentes.


METAR-TAF: